Time;durP1;ratioP1;P1;durP2;ratioP2;P2;SDS_P1;SDS_P2;PMS_P1;PMS_P2;Temp;Humidity;BMP_temperature;BMP_pressure;BME280_temperature;BME280_humidity;BME280_pressure;Samples;Min_cycle;Max_cycle;Signal;HPM_P1;HPM_P2
2022/01/11 00:00:51;;;;;;;11.13;3.90;;;;;;;-5.04;72.31;99893.31;4864946;29;20053;-59
2022/01/11 00:03:19;;;;;;;14.07;3.58;;;;;;;-5.06;72.09;99906.25;4880790;29;20049;-60
2022/01/11 00:08:17;;;;;;;9.18;3.70;;;;;;;-5.21;72.14;99894.94;4880599;29;20563;-54
2022/01/11 00:13:20;;;;;;;12.57;3.67;;;;;;;-5.13;72.24;99911.75;4880576;29;20053;-59
2022/01/11 00:15:48;;;;;;;12.82;3.85;;;;;;;-5.05;72.19;99916.06;4881033;29;20064;-63
2022/01/11 00:18:16;;;;;;;11.23;3.38;;;;;;;-5.03;72.20;99905.81;4880748;29;20060;-63
2022/01/11 00:20:43;;;;;;;8.43;3.08;;;;;;;-5.00;71.40;99918.94;4881380;29;20516;-62
2022/01/11 00:25:43;;;;;;;8.48;3.40;;;;;;;-5.02;71.40;99913.72;4880962;29;20084;-63
2022/01/11 00:28:14;;;;;;;9.27;4.00;;;;;;;-5.00;71.89;99921.66;4880307;29;20417;-63
2022/01/11 00:30:48;;;;;;;15.20;5.28;;;;;;;-4.97;71.25;99921.19;4878482;29;20147;-62
2022/01/11 00:33:20;;;;;;;10.30;3.25;;;;;;;-4.91;71.41;99928.44;4880645;29;20053;-62
2022/01/11 00:36:03;;;;;;;7.35;3.60;;;;;;;-4.96;71.25;99922.84;4861324;29;20505;-63
2022/01/11 00:38:34;;;;;;;4.20;2.10;;;;;;;-5.17;71.66;99925.97;4880533;29;20566;-63
2022/01/11 00:41:05;;;;;;;9.57;4.03;;;;;;;-5.32;72.10;99929.03;4880828;29;20059;-63
2022/01/11 00:43:33;;;;;;;;;;;;;;;-5.30;72.14;99934.22;4879860;29;20402;-63
2022/01/11 00:46:00;;;;;;;12.38;4.22;;;;;;;-5.39;72.55;99932.84;4880527;29;20091;-60
2022/01/11 00:48:28;;;;;;;10.00;3.92;;;;;;;-5.44;72.27;99941.63;4879961;29;20444;-60
2022/01/11 00:50:56;;;;;;;10.25;3.78;;;;;;;-5.45;72.20;99934.53;4880966;29;20080;-60
2022/01/11 00:53:23;;;;;;;14.80;3.80;;;;;;;-5.35;71.98;99950.31;4880115;29;20061;-60
2022/01/11 00:55:50;;;;;;;8.07;3.55;;;;;;;-5.39;72.12;99951.81;4880337;29;20061;-59
2022/01/11 00:58:19;;;;;;;6.68;3.35;;;;;;;-5.52;71.99;99954.59;4880233;29;20084;-59
2022/01/11 01:00:47;;;;;;;6.40;2.95;;;;;;;-5.69;72.54;99959.72;4880610;29;20049;-60
2022/01/11 01:03:15;;;;;;;8.65;3.65;;;;;;;-5.73;72.80;99964.75;4880405;29;20053;-62
2022/01/11 01:05:42;;;;;;;10.13;3.17;;;;;;;-5.79;72.30;99971.06;4880065;29;20064;-59
2022/01/11 01:08:09;;;;;;;8.30;4.28;;;;;;;-5.73;72.58;99975.59;4880919;29;20148;-61
2022/01/11 01:10:39;;;;;;;9.60;3.13;;;;;;;-5.70;72.12;99975.16;4878809;29;20187;-60
2022/01/11 01:13:10;;;;;;;3.30;2.00;;;;;;;-5.66;72.10;99980.94;4880554;29;20068;-60
2022/01/11 01:15:37;;;;;;;7.95;3.42;;;;;;;-5.77;71.88;99985.19;4879607;29;20124;-59
2022/01/11 01:18:06;;;;;;;12.10;3.80;;;;;;;-5.83;72.15;99974.44;4880125;29;20088;-60
2022/01/11 01:20:34;;;;;;;10.38;3.70;;;;;;;-5.72;72.40;99990.78;4879540;29;20064;-59
2022/01/11 01:23:02;;;;;;;4.57;2.08;;;;;;;-5.73;71.78;99997.28;4879116;29;20053;-62
2022/01/11 01:25:29;;;;;;;7.57;3.72;;;;;;;-5.76;72.17;99992.28;4879574;29;20092;-61
2022/01/11 01:27:56;;;;;;;4.28;2.33;;;;;;;-5.75;71.96;99996.66;4863024;29;20057;-63
2022/01/11 01:30:23;;;;;;;7.60;3.05;;;;;;;-5.80;72.06;99996.47;4862634;29;20048;-62
2022/01/11 01:32:51;;;;;;;10.35;3.78;;;;;;;-5.78;72.12;100002.50;4879562;29;20496;-62
2022/01/11 01:35:23;;;;;;;12.20;4.60;;;;;;;-5.76;71.80;99995.00;4879679;29;20080;-63
2022/01/11 01:37:50;;;;;;;3.03;1.67;;;;;;;-5.81;72.31;100011.06;4879818;29;20091;-62
2022/01/11 01:40:18;;;;;;;9.38;4.07;;;;;;;-5.98;72.11;100009.91;4879364;29;20053;-63
2022/01/11 01:42:47;;;;;;;9.13;4.13;;;;;;;-6.08;72.33;100020.38;4879585;29;20148;-63
2022/01/11 01:45:15;;;;;;;9.20;3.90;;;;;;;-6.03;72.52;100020.56;4879148;29;20088;-64
2022/01/11 01:47:42;;;;;;;2.22;1.52;;;;;;;-6.07;72.33;100023.94;4879570;29;20045;-63
2022/01/11 01:50:11;;;;;;;9.77;3.53;;;;;;;-6.20;72.92;100021.25;4878915;29;20588;-62
2022/01/11 01:52:38;;;;;;;12.35;4.00;;;;;;;-6.17;72.49;100024.38;4874809;29;20057;-62
2022/01/11 01:55:06;;;;;;;7.85;4.47;;;;;;;-6.17;72.27;100027.06;4878994;29;20505;-63
2022/01/11 01:57:33;;;;;;;7.90;3.38;;;;;;;-6.25;72.21;100023.78;4879250;29;20041;-63
2022/01/11 02:00:07;;;;;;;6.03;2.50;;;;;;;-6.30;72.52;100021.72;4879775;29;20065;-63
2022/01/11 02:02:36;;;;;;;2.15;1.42;;;;;;;-6.42;72.48;100020.72;4879241;29;20075;-62
2022/01/11 02:05:06;;;;;;;10.25;3.25;;;;;;;-6.43;72.54;100032.56;4879081;29;20059;-63
2022/01/11 02:07:34;;;;;;;5.90;3.45;;;;;;;-6.45;72.44;100026.50;4876973;29;20394;-63
2022/01/11 02:10:04;;;;;;;8.65;3.33;;;;;;;-6.47;72.36;100035.91;4879513;29;20056;-63
2022/01/11 02:12:32;;;;;;;3.88;2.10;;;;;;;-6.54;72.21;100021.56;4879108;29;20052;-63
2022/01/11 02:14:59;;;;;;;5.72;2.97;;;;;;;-6.63;72.98;100031.75;4878966;29;20059;-63
2022/01/11 02:17:28;;;;;;;8.85;2.97;;;;;;;-6.55;72.88;100028.00;4878781;29;20052;-62
2022/01/11 02:19:55;;;;;;;6.32;3.55;;;;;;;-6.50;71.88;100022.78;4879096;29;20542;-63
2022/01/11 02:22:24;;;;;;;9.95;3.28;;;;;;;-6.52;71.62;100032.97;4878356;29;20136;-61
2022/01/11 02:24:52;;;;;;;9.15;4.63;;;;;;;-6.58;71.82;100029.25;4878898;29;20440;-62
2022/01/11 02:27:19;;;;;;;7.93;3.42;;;;;;;-6.54;72.01;100038.59;4878379;29;20063;-63
2022/01/11 02:29:47;;;;;;;8.10;4.68;;;;;;;-6.46;72.29;100032.97;4878920;29;20041;-62
2022/01/11 02:32:14;;;;;;;2.25;1.13;;;;;;;-6.50;72.26;100026.34;4878740;29;20057;-63
2022/01/11 02:34:41;;;;;;;2.90;1.92;;;;;;;-6.62;71.47;100035.31;4878600;29;20144;-62
2022/01/11 02:37:08;;;;;;;5.13;3.20;;;;;;;-6.64;71.92;100030.09;4878209;29;20611;-62
2022/01/11 02:39:35;;;;;;;7.47;2.05;;;;;;;-6.73;71.94;100030.53;4878415;29;20425;-63
2022/01/11 02:42:02;;;;;;;7.90;2.55;;;;;;;-6.80;71.61;100046.78;4878553;29;20056;-62
2022/01/11 02:44:29;;;;;;;9.05;3.67;;;;;;;-6.79;72.04;100036.75;4878606;29;20564;-62
2022/01/11 02:46:56;;;;;;;11.30;3.90;;;;;;;-6.72;72.19;100032.19;4878500;29;20057;-61
2022/01/11 02:49:24;;;;;;;5.60;2.42;;;;;;;-6.71;72.04;100044.69;4861648;29;20084;-62
2022/01/11 02:51:51;;;;;;;9.43;3.90;;;;;;;-6.84;71.57;100050.09;4878698;29;20527;-62
2022/01/11 02:54:17;;;;;;;7.90;3.58;;;;;;;-6.95;71.78;100043.47;4878240;29;20057;-62
2022/01/11 02:56:45;;;;;;;4.75;1.95;;;;;;;-6.92;71.87;100053.84;4878867;29;20084;-61
2022/01/11 02:59:12;;;;;;;11.30;3.55;;;;;;;-6.91;71.34;100060.91;4878337;29;20045;-62
2022/01/11 03:01:39;;;;;;;10.75;3.42;;;;;;;-6.84;71.42;100064.44;4885544;29;20413;-62
2022/01/11 03:04:06;;;;;;;8.88;3.70;;;;;;;-6.84;71.21;100064.44;4877797;29;20085;-62
2022/01/11 03:06:33;;;;;;;6.78;3.25;;;;;;;-6.90;71.21;100065.28;4878108;29;20519;-62
2022/01/11 03:09:00;;;;;;;14.05;4.45;;;;;;;-6.88;70.80;100063.19;4877536;29;20053;-61
2022/01/11 03:11:32;;;;;;;5.75;2.72;;;;;;;-6.87;71.30;100069.44;4878514;29;20059;-62
2022/01/11 03:14:03;;;;;;;10.50;3.22;;;;;;;-6.93;70.52;100068.38;4878034;29;20053;-62
2022/01/11 03:16:30;;;;;;;10.00;3.10;;;;;;;-6.95;70.30;100065.09;4861437;29;20052;-62
2022/01/11 03:18:58;;;;;;;6.93;3.65;;;;;;;-6.86;69.97;100074.66;4877765;29;20429;-63
2022/01/11 03:21:28;;;;;;;7.97;3.17;;;;;;;-6.82;70.63;100075.88;4878013;29;20095;-62
2022/01/11 03:23:57;;;;;;;7.30;4.18;;;;;;;-6.79;70.19;100078.19;4877644;29;20064;-63
2022/01/11 03:26:24;;;;;;;5.55;2.92;;;;;;;-6.74;70.39;100078.41;4878281;29;20544;-62
2022/01/11 03:28:51;;;;;;;8.77;3.35;;;;;;;-6.73;70.34;100080.03;4877315;29;20770;-62
2022/01/11 03:31:22;;;;;;;9.05;3.35;;;;;;;-6.79;70.43;100085.44;4878239;29;20521;-61
2022/01/11 03:33:49;;;;;;;3.60;1.90;;;;;;;-6.85;69.64;100076.31;4877470;29;20523;-63
2022/01/11 03:36:16;;;;;;;5.18;2.83;;;;;;;-6.95;69.90;100078.59;4878123;29;20059;-64
2022/01/11 03:38:43;;;;;;;4.88;2.20;;;;;;;-6.92;70.40;100085.44;4877794;29;20136;-64
2022/01/11 03:41:11;;;;;;;4.50;2.35;;;;;;;-6.97;69.59;100083.38;4878328;29;20520;-63
2022/01/11 03:43:38;;;;;;;8.10;2.70;;;;;;;-7.06;70.58;100081.91;4877927;29;20052;-63
2022/01/11 03:46:05;;;;;;;10.05;3.50;;;;;;;-7.06;70.05;100081.06;4877741;29;20056;-64
2022/01/11 03:48:32;;;;;;;8.88;2.83;;;;;;;-7.10;70.63;100094.19;4877942;29;20117;-62
2022/01/11 03:50:59;;;;;;;7.57;3.08;;;;;;;-7.17;70.61;100092.50;4877453;29;20101;-63
2022/01/11 03:53:31;;;;;;;5.75;2.67;;;;;;;-7.21;69.76;100092.09;4878240;29;20053;-63
2022/01/11 03:56:21;;;;;;;7.50;3.05;;;;;;;-7.15;70.35;100102.06;4877636;29;20508;-63
2022/01/11 03:58:45;;;;;;;3.70;1.58;;;;;;;-7.05;70.15;100107.09;4877228;29;20096;-63
2022/01/11 04:01:11;;;;;;;5.20;2.28;;;;;;;-7.14;69.04;100119.94;4877944;29;20056;-63
2022/01/11 04:03:38;;;;;;;12.32;2.75;;;;;;;-7.11;69.93;100111.41;4878031;29;20057;-63
2022/01/11 04:06:06;;;;;;;4.82;2.53;;;;;;;-7.04;69.44;100114.13;4877742;29;20056;-63
2022/01/11 04:08:33;;;;;;;3.42;2.03;;;;;;;-7.08;68.63;100113.72;4877821;29;20059;-64
2022/01/11 04:11:00;;;;;;;4.93;2.45;;;;;;;-7.12;69.98;100123.28;4877436;29;20057;-63
2022/01/11 04:13:27;;;;;;;10.57;3.38;;;;;;;-7.12;69.11;100115.16;4877926;29;20946;-64
2022/01/11 04:15:53;;;;;;;6.55;2.20;;;;;;;-7.24;68.84;100118.66;4877825;29;20057;-63
2022/01/11 04:18:20;;;;;;;1.33;0.90;;;;;;;-7.39;69.38;100121.56;4880290;29;20128;-63
2022/01/11 04:20:47;;;;;;;7.57;2.78;;;;;;;-7.48;69.57;100130.88;4880811;29;20076;-63
2022/01/11 04:23:15;;;;;;;9.40;3.20;;;;;;;-7.44;69.19;100142.94;4881104;29;20056;-64
2022/01/11 04:25:42;;;;;;;9.40;3.42;;;;;;;-7.45;69.64;100138.56;4863543;29;20564;-63
2022/01/11 04:28:09;;;;;;;8.00;3.22;;;;;;;-7.55;68.49;100142.69;4880790;29;20061;-63
2022/01/11 04:30:37;;;;;;;8.00;3.35;;;;;;;-7.49;69.05;100141.88;4880360;29;20057;-64
2022/01/11 04:33:05;;;;;;;3.88;1.77;;;;;;;-7.50;68.95;100151.03;4881213;29;20139;-62
2022/01/11 04:35:32;;;;;;;11.60;2.75;;;;;;;-7.52;69.33;100151.22;4880530;29;20079;-63
2022/01/11 04:38:00;;;;;;;8.07;2.83;;;;;;;-7.52;68.80;100164.75;4880624;29;20553;-64
2022/01/11 04:40:27;;;;;;;2.95;1.85;;;;;;;-7.52;69.01;100163.91;4881038;29;20061;-63
2022/01/11 04:42:54;;;;;;;6.82;3.05;;;;;;;-7.47;69.04;100159.53;4880759;29;20057;-62
2022/01/11 04:45:21;;;;;;;9.30;3.03;;;;;;;-7.37;68.80;100164.56;4880810;29;20145;-63
2022/01/11 04:47:52;;;;;;;5.65;3.08;;;;;;;-7.46;68.79;100166.63;4880525;29;20064;-63
2022/01/11 04:50:19;;;;;;;3.10;1.90;;;;;;;-7.55;68.29;100169.69;4880335;29;20061;-63
2022/01/11 04:52:46;;;;;;;8.02;3.28;;;;;;;-7.54;68.35;100169.50;4880249;29;20053;-63
2022/01/11 04:55:13;;;;;;;6.10;2.88;;;;;;;-7.45;68.50;100167.44;4879227;29;20060;-63
2022/01/11 04:57:43;;;;;;;6.70;3.38;;;;;;;-7.42;68.59;100169.75;4880164;29;20072;-63
2022/01/11 05:00:11;;;;;;;5.05;2.45;;;;;;;-7.48;68.26;100167.84;4880216;29;20052;-63
2022/01/11 05:02:38;;;;;;;3.50;1.58;;;;;;;-7.66;68.91;100168.41;4880103;29;20056;-63
2022/01/11 05:05:06;;;;;;;6.97;3.08;;;;;;;-7.69;68.83;100174.22;4880055;29;20509;-63
2022/01/11 05:07:33;;;;;;;8.18;3.45;;;;;;;-7.72;68.81;100171.91;4880181;29;20081;-64
2022/01/11 05:10:01;;;;;;;0.95;0.90;;;;;;;-7.65;68.19;100187.13;4879909;29;20543;-63
2022/01/11 05:12:29;;;;;;;2.72;1.67;;;;;;;-7.70;68.07;100188.75;4880443;29;20120;-63
2022/01/11 05:14:55;;;;;;;8.02;2.80;;;;;;;-7.79;68.43;100184.53;4880110;29;20505;-63
2022/01/11 05:17:22;;;;;;;6.32;2.88;;;;;;;-7.69;68.65;100190.41;4879628;29;20065;-63
2022/01/11 05:19:49;;;;;;;3.92;2.40;;;;;;;-7.60;68.65;100189.22;4876526;29;20420;-63
2022/01/11 05:22:16;;;;;;;5.95;2.80;;;;;;;-7.53;67.65;100195.47;4879519;29;20053;-63
2022/01/11 05:24:43;;;;;;;8.45;3.55;;;;;;;-7.46;68.28;100196.34;4880220;29;20087;-63
2022/01/11 05:27:10;;;;;;;6.53;2.92;;;;;;;-7.43;68.18;100204.06;4880154;29;20084;-63
2022/01/11 05:29:37;;;;;;;9.43;2.85;;;;;;;-7.41;67.71;100204.66;4879064;29;20053;-63
2022/01/11 05:32:04;;;;;;;5.97;2.70;;;;;;;-7.35;68.31;100214.66;4879981;29;20048;-62
2022/01/11 05:34:31;;;;;;;5.35;2.63;;;;;;;-7.42;67.01;100208.41;4879245;29;20121;-63
2022/01/11 05:36:58;;;;;;;7.20;2.75;;;;;;;-7.56;67.27;100212.06;4880042;29;20053;-64
2022/01/11 05:39:25;;;;;;;3.97;1.90;;;;;;;-7.65;68.54;100207.88;4879067;29;20509;-63
2022/01/11 05:41:53;;;;;;;6.30;2.63;;;;;;;-7.62;67.53;100212.88;4879929;29;20060;-63
2022/01/11 05:44:21;;;;;;;4.68;2.80;;;;;;;-7.62;68.15;100213.72;4879324;29;20049;-64
2022/01/11 05:46:48;;;;;;;5.30;1.98;;;;;;;-7.68;67.61;100214.53;4879574;29;20049;-63
2022/01/11 05:49:15;;;;;;;4.05;2.35;;;;;;;-7.70;68.18;100227.38;4878864;29;20493;-62
2022/01/11 05:51:42;;;;;;;6.95;2.83;;;;;;;-7.70;67.12;100221.16;4879554;29;20409;-63
2022/01/11 05:54:09;;;;;;;6.45;3.25;;;;;;;-7.78;68.06;100229.41;4879090;29;20513;-62
2022/01/11 05:56:36;;;;;;;5.57;3.08;;;;;;;-7.83;66.94;100226.47;4879210;29;20064;-63
2022/01/11 05:59:03;;;;;;;2.65;1.65;;;;;;;-7.88;66.63;100235.16;4879247;29;20056;-62
2022/01/11 06:01:30;;;;;;;2.92;1.80;;;;;;;-7.89;67.15;100232.66;4877557;29;20508;-62
2022/01/11 06:03:57;;;;;;;5.78;2.15;;;;;;;-8.04;67.46;100234.63;4877400;29;20053;-64
2022/01/11 06:06:24;;;;;;;7.40;2.25;;;;;;;-8.07;67.51;100235.88;4878879;29;20053;-63
2022/01/11 06:08:56;;;;;;;4.85;2.15;;;;;;;-7.98;66.80;100240.09;4879063;29;20067;-63
2022/01/11 06:11:23;;;;;;;2.67;1.40;;;;;;;-7.89;66.02;100254.25;4862341;29;20500;-64
2022/01/11 06:13:51;;;;;;;9.15;2.47;;;;;;;-7.92;66.14;100252.78;4870645;29;20505;-63
2022/01/11 06:16:18;;;;;;;7.20;2.72;;;;;;;-7.90;66.66;100248.00;4877815;29;20587;-63
2022/01/11 06:18:45;;;;;;;8.63;2.30;;;;;;;-7.96;66.08;100243.41;4877909;29;20108;-63
2022/01/11 06:21:12;;;;;;;4.10;2.30;;;;;;;-8.08;66.42;100255.75;4878122;29;20057;-62
2022/01/11 06:23:39;;;;;;;4.35;2.15;;;;;;;-8.17;66.43;100262.34;4877861;29;20055;-63
2022/01/11 06:26:06;;;;;;;5.15;1.90;;;;;;;-8.27;66.73;100269.13;4878130;29;20057;-62
2022/01/11 06:28:33;;;;;;;4.93;2.58;;;;;;;-8.34;66.59;100265.56;4877573;29;20147;-63
2022/01/11 06:31:00;;;;;;;6.25;2.50;;;;;;;-8.34;66.76;100273.63;4878082;29;20055;-63
2022/01/11 06:33:27;;;;;;;8.93;2.40;;;;;;;-8.47;65.95;100295.91;4877915;29;20048;-63
2022/01/11 06:35:54;;;;;;;8.45;2.60;;;;;;;-8.36;66.91;100286.47;4877931;29;20110;-63
2022/01/11 06:38:21;;;;;;;7.47;2.00;;;;;;;-8.25;65.57;100277.88;4874467;29;20059;-64
2022/01/11 06:40:48;;;;;;;8.43;2.92;;;;;;;-8.26;66.45;100279.72;4876607;29;20504;-63
2022/01/11 06:43:15;;;;;;;9.90;3.38;;;;;;;-8.19;66.49;100291.41;4877681;29;20080;-62
2022/01/11 06:45:42;;;;;;;6.85;2.95;;;;;;;-8.27;65.44;100288.00;4872591;29;20060;-63
2022/01/11 06:48:10;;;;;;;5.70;2.42;;;;;;;-8.31;65.01;100279.50;4877303;29;20453;-63
2022/01/11 06:50:37;;;;;;;6.20;2.85;;;;;;;-8.51;66.02;100293.81;4878063;29;20040;-63
2022/01/11 06:53:03;;;;;;;4.90;2.30;;;;;;;-8.61;66.50;100301.38;4877590;29;20147;-63
2022/01/11 06:55:30;;;;;;;11.80;3.22;;;;;;;-8.62;66.68;100305.13;4878156;29;20088;-64
2022/01/11 06:58:03;;;;;;;8.50;3.35;;;;;;;-8.57;65.91;100294.56;4878266;29;20520;-62
2022/01/11 07:00:32;;;;;;;4.07;1.85;;;;;;;-8.57;66.14;100297.25;4876907;29;20428;-63
2022/01/11 07:02:59;;;;;;;4.68;1.92;;;;;;;-8.56;65.80;100309.75;4876867;29;20053;-63
2022/01/11 07:05:26;;;;;;;5.43;2.67;;;;;;;-8.54;66.54;100307.66;4877656;29;20469;-62
2022/01/11 07:07:53;;;;;;;3.60;0.80;;;;;;;-8.53;66.33;100309.34;4877117;29;21152;-61
2022/01/11 07:10:20;;;;;;;8.15;2.47;;;;;;;-8.65;66.10;100316.28;4877504;29;20045;-62
2022/01/11 07:12:47;;;;;;;6.97;2.63;;;;;;;-8.59;65.71;100315.53;4876788;29;20041;-63
2022/01/11 07:15:14;;;;;;;8.38;2.80;;;;;;;-8.45;66.00;100312.75;4877662;29;20512;-62
2022/01/11 07:17:42;;;;;;;3.38;1.83;;;;;;;-8.45;65.21;100325.41;4877078;29;20091;-62
2022/01/11 07:20:09;;;;;;;4.47;2.13;;;;;;;-8.46;65.71;100323.75;4872670;29;20052;-63
2022/01/11 07:22:37;;;;;;;2.65;1.30;;;;;;;-8.58;64.75;100327.97;4877459;29;20059;-63
2022/01/11 07:25:06;;;;;;;1.83;1.35;;;;;;;-8.73;64.23;100330.72;4876581;29;20077;-62
2022/01/11 07:27:34;;;;;;;4.03;1.95;;;;;;;-8.86;64.83;100329.72;4878050;29;20060;-62
2022/01/11 07:30:06;;;;;;;3.60;1.88;;;;;;;-8.95;64.24;100331.69;4877122;29;20052;-63
2022/01/11 07:32:35;;;;;;;5.13;2.45;;;;;;;-8.99;64.24;100334.94;4877346;29;20064;-64
2022/01/11 07:35:05;;;;;;;8.57;2.47;;;;;;;-8.88;63.72;100338.00;4876277;29;20053;-63
2022/01/11 07:37:32;;;;;;;13.68;3.35;;;;;;;-8.89;64.03;100343.59;4877757;29;20053;-64
2022/01/11 07:39:59;;;;;;;4.50;1.95;;;;;;;-9.04;64.10;100353.53;4876960;29;20444;-62
2022/01/11 07:42:26;;;;;;;3.80;1.63;;;;;;;-9.14;64.05;100361.91;4877849;29;20136;-63
2022/01/11 07:44:54;;;;;;;2.97;1.63;;;;;;;-9.14;64.30;100352.97;4877079;29;20137;-63
2022/01/11 07:47:21;;;;;;;9.68;2.38;;;;;;;-9.14;63.82;100361.91;4877729;29;20045;-63
2022/01/11 07:49:48;;;;;;;2.60;1.73;;;;;;;-8.95;64.31;100364.00;4876464;29;20536;-63
2022/01/11 07:52:16;;;;;;;5.72;2.35;;;;;;;-8.89;64.21;100373.22;4880033;29;20072;-63
2022/01/11 07:54:43;;;;;;;6.15;2.60;;;;;;;-8.70;63.94;100361.84;4880137;29;20605;-64
2022/01/11 07:57:10;;;;;;;4.40;1.92;;;;;;;-8.68;63.35;100365.19;4880057;29;20413;-64
2022/01/11 07:59:37;;;;;;;4.65;1.85;;;;;;;-8.72;63.20;100363.88;4880239;29;20049;-63
2022/01/11 08:02:21;;;;;;;5.25;2.10;;;;;;;-8.64;63.60;100382.66;4880884;29;20527;-63
2022/01/11 08:04:51;;;;;;;6.63;2.38;;;;;;;-8.68;63.83;100375.97;4879635;29;20057;-65
2022/01/11 08:07:18;;;;;;;8.20;2.75;;;;;;;-8.82;63.59;100374.13;4881163;29;20246;-64
2022/01/11 08:09:45;;;;;;;2.92;1.80;;;;;;;-8.91;63.79;100376.13;4879720;29;21259;-63
2022/01/11 08:12:12;;;;;;;4.95;1.98;;;;;;;-8.97;63.86;100367.94;4880771;29;20413;-64
2022/01/11 08:14:39;;;;;;;6.90;1.75;;;;;;;-8.86;63.37;100378.25;4879857;29;20060;-64
2022/01/11 08:17:06;;;;;;;8.60;2.42;;;;;;;-9.03;63.64;100368.69;4881272;29;20053;-63
2022/01/11 08:19:33;;;;;;;4.25;2.17;;;;;;;-8.96;63.62;100374.97;4879800;29;20215;-63
2022/01/11 08:22:00;;;;;;;3.95;1.73;;;;;;;-8.88;63.39;100370.34;4880215;29;20135;-63
2022/01/11 08:24:27;;;;;;;2.85;1.65;;;;;;;-8.85;63.27;100380.75;4879454;29;20535;-64
2022/01/11 08:26:54;;;;;;;5.50;1.95;;;;;;;-8.84;62.55;100378.88;4880534;29;20089;-63
2022/01/11 08:29:22;;;;;;;5.90;2.22;;;;;;;-8.89;62.85;100389.41;4880518;29;20048;-63
2022/01/11 08:31:50;;;;;;;7.20;2.58;;;;;;;-9.00;63.50;100384.47;4880137;29;20131;-64
2022/01/11 08:34:18;;;;;;;5.30;2.38;;;;;;;-9.03;62.94;100387.53;4880651;29;20053;-63
2022/01/11 08:36:50;;;;;;;4.97;2.45;;;;;;;-9.01;63.61;100396.25;4880433;29;20523;-64
2022/01/11 08:39:18;;;;;;;81.82;22.02;;;;;;;-8.87;62.85;100403.50;4880701;29;20052;-64
2022/01/11 08:41:46;;;;;;;17.05;5.40;;;;;;;-8.73;62.74;100391.88;4879806;29;20049;-64
2022/01/11 08:44:13;;;;;;;4.88;2.30;;;;;;;-8.66;62.99;100384.69;4879926;29;20437;-63
2022/01/11 08:46:42;;;;;;;5.78;2.53;;;;;;;-8.61;62.97;100390.38;4879026;29;20136;-63
2022/01/11 08:49:12;;;;;;;6.33;2.20;;;;;;;-8.68;62.85;100387.59;4863426;29;20079;-63
2022/01/11 08:51:40;;;;;;;7.30;2.60;;;;;;;-8.60;62.37;100394.72;4878090;29;20389;-64
2022/01/11 08:54:09;;;;;;;7.10;2.30;;;;;;;-8.66;62.62;100384.69;4878752;29;20390;-64
2022/01/11 08:56:36;;;;;;;12.23;2.80;;;;;;;-8.59;62.67;100388.31;4879515;29;20078;-63
2022/01/11 08:59:03;;;;;;;10.23;2.60;;;;;;;-8.51;61.78;100382.78;4862961;29;20052;-63
2022/01/11 09:01:31;;;;;;;0.40;0.40;;;;;;;-8.52;60.95;100389.22;4878771;29;20080;-63
2022/01/11 09:03:58;;;;;;;6.25;2.65;;;;;;;-8.67;61.05;100393.81;4877207;29;20078;-63
2022/01/11 09:06:25;;;;;;;5.63;1.70;;;;;;;-8.71;62.30;100389.84;4877636;29;20476;-64
2022/01/11 09:09:13;;;;;;;5.28;2.13;;;;;;;-8.60;61.38;100400.13;4878499;29;20045;-65
2022/01/11 09:11:41;;;;;;;11.77;2.08;;;;;;;-8.57;61.04;100388.94;4880273;29;20076;-64
2022/01/11 09:14:08;;;;;;;7.97;2.45;;;;;;;-8.48;61.15;100388.66;4879548;29;20120;-63
2022/01/11 09:16:35;;;;;;;3.63;1.92;;;;;;;-8.27;59.91;100390.53;4879620;29;20160;-63
2022/01/11 09:19:07;;;;;;;2.80;1.45;;;;;;;-8.19;61.02;100393.94;4879365;29;20060;-63
2022/01/11 09:21:34;;;;;;;11.60;4.25;;;;;;;-8.24;59.99;100388.28;4879118;29;20524;-63
2022/01/11 09:24:02;;;;;;;2.70;1.65;;;;;;;-8.21;59.62;100395.13;4879125;29;20556;-64
2022/01/11 09:26:30;;;;;;;8.95;2.13;;;;;;;-8.16;60.44;100393.56;4879123;29;20461;-64
2022/01/11 09:28:58;;;;;;;9.18;2.97;;;;;;;-8.09;59.67;100396.28;4878633;29;20067;-63
2022/01/11 09:31:25;;;;;;;6.03;1.95;;;;;;;-8.07;59.32;100403.19;4878858;29;20053;-64
2022/01/11 09:33:52;;;;;;;4.45;1.98;;;;;;;-8.02;59.42;100402.63;4878925;29;20416;-63
2022/01/11 09:36:19;;;;;;;5.82;2.20;;;;;;;-7.93;59.59;100409.56;4879275;29;20057;-62
2022/01/11 09:38:46;;;;;;;4.75;1.42;;;;;;;-7.99;59.21;100410.31;4877796;29;20131;-63
2022/01/11 09:41:14;;;;;;;4.00;1.70;;;;;;;-8.26;59.96;100400.31;4878251;29;20141;-63
2022/01/11 09:43:41;;;;;;;4.85;2.33;;;;;;;-8.45;59.85;100409.84;4878647;29;20109;-65
2022/01/11 09:46:08;;;;;;;6.05;2.25;;;;;;;-8.60;60.07;100398.25;4878825;29;20065;-63
2022/01/11 09:48:35;;;;;;;5.45;1.92;;;;;;;-8.75;59.99;100402.84;4881994;29;20103;-63
2022/01/11 09:51:02;;;;;;;2.20;1.35;;;;;;;-8.99;59.92;100399.59;4881144;29;20385;-64
2022/01/11 09:53:30;;;;;;;2.97;1.60;;;;;;;-9.08;60.27;100403.44;4877945;29;20535;-63
2022/01/11 09:56:02;;;;;;;4.57;1.88;;;;;;;-9.05;60.43;100403.91;4877740;29;20140;-63
2022/01/11 09:58:29;;;;;;;5.07;1.75;;;;;;;-9.00;59.84;100406.84;4878945;29;20516;-64
2022/01/11 10:00:56;;;;;;;5.88;1.88;;;;;;;-9.19;60.22;100415.50;4879108;29;20053;-64
2022/01/11 10:03:23;;;;;;;4.20;1.90;;;;;;;-9.19;59.67;100406.56;4877625;29;20594;-63
2022/01/11 10:05:50;;;;;;;9.60;1.88;;;;;;;-9.07;59.83;100418.56;4879353;29;20136;-63
2022/01/11 10:08:27;;;;;;;4.28;1.33;;;;;;;-9.00;60.49;100424.91;4877389;29;20390;-63
2022/01/11 10:10:57;;;;;;;7.05;2.05;;;;;;;-9.12;59.77;100427.19;4879077;29;20049;-63
2022/01/11 10:13:39;;;;;;;5.57;2.17;;;;;;;-9.17;60.35;100412.63;4878961;29;20053;-64
2022/01/11 10:16:26;;;;;;;5.65;2.17;;;;;;;-9.08;60.20;100419.59;4877249;29;20059;-64
2022/01/11 10:18:56;;;;;;;3.75;1.90;;;;;;;-9.24;60.42;100425.16;4878955;29;20052;-63
2022/01/11 10:21:34;;;;;;;1.88;1.25;;;;;;;-9.14;59.82;100428.41;4877641;29;20077;-64
2022/01/11 10:24:21;;;;;;;4.47;1.73;;;;;;;-9.14;60.45;100423.03;4878462;29;20076;-64
2022/01/11 10:26:49;;;;;;;3.80;1.85;;;;;;;-9.14;60.19;100426.56;4877200;29;20073;-63
2022/01/11 10:29:33;;;;;;;4.93;1.55;;;;;;;-9.09;59.64;100428.72;4877716;29;20080;-63
2022/01/11 10:32:10;;;;;;;2.72;0.90;;;;;;;-9.24;59.63;100427.84;4878865;29;20468;-63
2022/01/11 10:34:38;;;;;;;4.15;1.90;;;;;;;-9.51;60.50;100426.59;4878679;29;20049;-63
2022/01/11 10:37:06;;;;;;;4.82;2.00;;;;;;;-9.67;61.05;100434.84;4878331;29;20056;-63
2022/01/11 10:39:39;;;;;;;8.32;1.88;;;;;;;-9.72;61.11;100443.44;4878599;29;20053;-63
2022/01/11 10:42:23;;;;;;;5.15;2.38;;;;;;;-9.67;61.12;100432.13;4878301;29;20517;-64
2022/01/11 10:44:53;;;;;;;3.10;1.70;;;;;;;-9.69;61.10;100429.63;4878082;29;20061;-63
2022/01/11 10:47:23;;;;;;;3.55;1.83;;;;;;;-9.71;61.22;100434.34;4877170;29;20140;-63
2022/01/11 10:49:53;;;;;;;4.63;1.60;;;;;;;-9.80;60.91;100427.38;4877902;29;20065;-62
2022/01/11 10:52:26;;;;;;;4.00;1.92;;;;;;;-9.94;61.23;100430.88;4878544;29;20056;-63
2022/01/11 10:54:54;;;;;;;9.55;2.22;;;;;;;-9.98;61.11;100434.09;4877972;29;20219;-64
2022/01/11 10:57:28;;;;;;;11.70;1.90;;;;;;;-9.79;61.15;100437.13;4878463;29;20415;-66
2022/01/11 11:00:07;;;;;;;5.47;2.55;;;;;;;-9.77;61.12;100432.38;4878228;29;20061;-62
2022/01/11 11:02:34;;;;;;;6.05;2.15;;;;;;;-9.81;61.07;100441.84;4876117;29;20053;-61
2022/01/11 11:05:14;;;;;;;2.55;1.80;;;;;;;-9.80;60.67;100438.13;4877822;29;20421;-63
2022/01/11 11:07:42;;;;;;;5.10;2.42;;;;;;;-9.79;61.16;100439.81;4876700;29;20088;-63
2022/01/11 11:10:10;;;;;;;5.32;2.35;;;;;;;-9.68;61.23;100431.28;4877625;29;20051;-65
2022/01/11 11:12:37;;;;;;;1.98;1.08;;;;;;;-9.65;60.88;100436.31;4878135;29;20097;-64
2022/01/11 11:15:06;;;;;;;1.23;0.88;;;;;;;-9.68;60.87;100442.06;4877890;29;20056;-58
2022/01/11 11:17:39;;;;;;;5.95;1.60;;;;;;;-9.76;60.80;100450.22;4875176;29;20056;-58
2022/01/11 11:20:09;;;;;;;6.75;2.42;;;;;;;-10.02;61.14;100449.75;4861103;29;20053;-58
2022/01/11 11:22:36;;;;;;;4.63;2.22;;;;;;;-10.07;61.23;100440.59;4877996;29;20059;-61
2022/01/11 11:25:05;;;;;;;4.22;1.55;;;;;;;-10.14;61.67;100453.91;4877478;29;20053;-57
2022/01/11 11:27:32;;;;;;;5.40;2.42;;;;;;;-10.39;61.60;100451.53;4878018;29;20522;-61
2022/01/11 11:29:59;;;;;;;2.00;1.08;;;;;;;-10.32;62.01;100458.72;4881650;29;20093;-61
2022/01/11 11:32:26;;;;;;;3.25;1.95;;;;;;;-10.10;61.06;100465.16;4881697;29;20505;-61
2022/01/11 11:34:53;;;;;;;4.10;1.70;;;;;;;-10.10;61.48;100463.28;4881952;29;20053;-59
2022/01/11 11:37:31;;;;;;;3.20;1.40;;;;;;;-10.04;61.75;100473.28;4881514;29;20440;-58